Time;durP1;ratioP1;P1;durP2;ratioP2;P2;SDS_P1;SDS_P2;PMS_P1;PMS_P2;Temp;Humidity;BMP_temperature;BMP_pressure;BME280_temperature;BME280_humidity;BME280_pressure;Samples;Min_cycle;Max_cycle;Signal;HPM_P1;HPM_P2
2022/02/08 00:00:05;;;;;;;22.00;5.90;;;5.80;99.90;;;;;;5101779;28;20051;-53
2022/02/08 00:02:35;;;;;;;24.23;5.43;;;5.90;99.90;;;;;;5114150;28;20424;-52
2022/02/08 00:05:00;;;;;;;27.65;6.28;;;5.80;99.90;;;;;;5114278;28;20046;-52
2022/02/08 00:07:28;;;;;;;27.50;7.00;;;5.80;99.90;;;;;;5114227;28;20044;-53
2022/02/08 00:09:54;;;;;;;24.73;6.93;;;5.80;99.90;;;;;;5095562;28;20055;-53
2022/02/08 00:12:19;;;;;;;24.80;6.93;;;5.80;99.90;;;;;;5114473;28;20035;-54
2022/02/08 00:14:46;;;;;;;25.05;6.70;;;5.80;99.90;;;;;;5114304;28;20513;-53
2022/02/08 00:17:12;;;;;;;24.08;6.80;;;5.80;99.90;;;;;;5114469;28;20044;-52
2022/02/08 00:19:37;;;;;;;26.00;6.88;;;5.80;99.90;;;;;;5113293;28;20044;-52
2022/02/08 00:22:04;;;;;;;31.83;7.85;;;5.80;99.90;;;;;;5114129;28;20444;-48
2022/02/08 00:24:30;;;;;;;30.23;6.88;;;5.80;99.90;;;;;;5113769;28;20039;-53
2022/02/08 00:26:55;;;;;;;32.65;8.05;;;5.80;99.90;;;;;;5113619;28;20043;-53
2022/02/08 00:29:22;;;;;;;30.75;7.10;;;5.90;99.90;;;;;;5113704;28;20042;-53
2022/02/08 00:31:48;;;;;;;23.95;7.88;;;5.90;99.90;;;;;;5113594;28;20055;-53
2022/02/08 00:34:14;;;;;;;31.42;7.68;;;5.90;99.90;;;;;;5113364;28;20059;-53
2022/02/08 00:36:39;;;;;;;34.63;7.05;;;6.00;99.90;;;;;;5113643;28;20035;-61
2022/02/08 00:39:07;;;;;;;30.92;7.78;;;6.00;99.90;;;;;;5113543;28;20028;-61
2022/02/08 00:41:35;;;;;;;28.83;6.37;;;6.00;99.90;;;;;;5113585;28;20039;-60
2022/02/08 00:44:10;;;;;;;34.33;7.80;;;6.10;99.90;;;;;;5113248;28;20035;-61
2022/02/08 00:49:04;;;;;;;32.38;7.78;;;6.10;99.90;;;;;;5113152;28;20048;-60
2022/02/08 00:51:40;;;;;;;37.50;8.23;;;6.10;99.90;;;;;;5113341;28;20031;-61
2022/02/08 00:54:06;;;;;;;37.45;7.90;;;6.10;99.90;;;;;;5113442;28;20468;-61
2022/02/08 00:56:32;;;;;;;32.90;8.57;;;6.10;99.90;;;;;;5113747;28;20813;-62
2022/02/08 00:58:57;;;;;;;29.85;7.20;;;6.20;99.90;;;;;;5112809;28;20108;-61
2022/02/08 01:01:23;;;;;;;31.30;7.85;;;6.20;99.90;;;;;;5094446;28;20082;-61
2022/02/08 01:03:49;;;;;;;30.80;7.60;;;6.20;99.90;;;;;;5094669;28;20476;-61
2022/02/08 01:06:16;;;;;;;29.58;6.95;;;6.20;99.90;;;;;;5113021;28;20092;-61
2022/02/08 01:08:42;;;;;;;28.50;8.52;;;6.20;99.90;;;;;;5112824;28;20082;-61
2022/02/08 01:11:10;;;;;;;34.80;8.32;;;6.30;99.90;;;;;;5112874;28;20068;-63
2022/02/08 01:13:38;;;;;;;33.15;8.15;;;6.30;99.90;;;;;;5112996;28;20038;-61
2022/02/08 01:16:05;;;;;;;33.00;8.68;;;6.30;99.90;;;;;;5112968;28;20428;-61
2022/02/08 01:18:34;;;;;;;25.48;8.27;;;6.30;99.90;;;;;;5112823;28;20067;-61
2022/02/08 01:21:00;;;;;;;20.75;7.55;;;6.30;99.90;;;;;;5112618;28;20036;-61
2022/02/08 01:23:25;;;;;;;24.67;8.27;;;6.30;99.90;;;;;;5112626;28;20085;-61
2022/02/08 01:25:56;;;;;;;28.73;7.35;;;6.30;99.90;;;;;;5112711;28;20089;-61
2022/02/08 01:33:36;;;;;;;21.75;6.85;;;6.40;99.90;;;;;;5112681;28;20043;-61
2022/02/08 01:39:05;;;;;;;17.88;6.65;;;6.40;99.90;;;;;;5112729;28;20075;-60
2022/02/08 01:46:36;;;;;;;25.92;8.05;;;6.50;99.90;;;;;;5112386;28;20096;-61
2022/02/08 01:49:15;;;;;;;18.40;7.25;;;6.50;99.90;;;;;;5112351;28;20665;-61
2022/02/08 01:51:41;;;;;;;24.98;7.45;;;6.50;99.90;;;;;;5112526;28;20031;-61
2022/02/08 01:54:06;;;;;;;24.40;7.55;;;6.50;99.90;;;;;;5112177;28;20049;-61
2022/02/08 01:56:32;;;;;;;19.90;8.15;;;6.50;99.90;;;;;;5112372;28;20119;-61
2022/02/08 01:58:58;;;;;;;15.40;7.47;;;6.50;99.90;;;;;;5111985;28;20107;-61
2022/02/08 02:01:24;;;;;;;14.20;7.82;;;6.60;99.90;;;;;;5112803;28;20047;-61
2022/02/08 02:03:49;;;;;;;17.13;8.60;;;6.60;99.90;;;;;;5112349;28;20431;-61
2022/02/08 02:06:15;;;;;;;23.52;8.73;;;6.60;99.90;;;;;;5112054;28;20078;-61
2022/02/08 02:08:41;;;;;;;22.48;9.82;;;6.60;99.90;;;;;;5112293;28;20035;-61
2022/02/08 02:11:08;;;;;;;18.55;9.30;;;6.60;99.90;;;;;;5112232;28;20123;-61
2022/02/08 02:13:42;;;;;;;25.88;10.32;;;6.60;99.90;;;;;;5112000;28;20111;-60
2022/02/08 02:16:09;;;;;;;20.52;9.32;;;6.60;99.90;;;;;;5112029;28;20548;-61
2022/02/08 02:18:35;;;;;;;21.83;9.88;;;6.60;99.90;;;;;;5112243;28;20082;-61
2022/02/08 02:21:03;;;;;;;21.92;9.88;;;6.60;99.90;;;;;;5112496;28;20075;-61
2022/02/08 02:23:30;;;;;;;24.95;10.43;;;6.60;99.90;;;;;;5112368;28;20485;-62
2022/02/08 02:25:56;;;;;;;23.20;10.48;;;6.70;99.90;;;;;;5112270;28;20435;-60
2022/02/08 02:28:22;;;;;;;23.88;10.50;;;6.70;99.90;;;;;;5111987;28;20146;-61
2022/02/08 02:30:48;;;;;;;29.05;10.75;;;6.70;99.90;;;;;;5112268;28;20071;-62
2022/02/08 02:33:14;;;;;;;33.20;12.55;;;6.70;99.90;;;;;;5112124;28;20031;-61
2022/02/08 02:35:42;;;;;;;34.88;12.95;;;6.80;99.90;;;;;;5112177;28;20047;-61
2022/02/08 02:38:08;;;;;;;40.05;12.93;;;6.80;99.90;;;;;;5111902;28;20039;-60
2022/02/08 02:40:34;;;;;;;40.55;13.98;;;6.80;99.90;;;;;;5111927;28;20103;-60
2022/02/08 02:43:00;;;;;;;46.53;14.38;;;6.80;99.90;;;;;;5113539;28;20127;-61
2022/02/08 02:45:27;;;;;;;47.40;14.60;;;6.90;99.90;;;;;;5116125;28;20054;-61
2022/02/08 02:47:54;;;;;;;40.83;15.05;;;6.90;99.90;;;;;;5115936;28;20040;-61
2022/02/08 02:50:22;;;;;;;43.50;15.60;;;7.00;99.90;;;;;;5115914;28;20119;-61
2022/02/08 02:52:47;;;;;;;43.40;15.02;;;7.00;99.90;;;;;;5115653;28;20435;-60
2022/02/08 02:55:15;;;;;;;42.50;14.95;;;7.00;99.90;;;;;;5115774;28;20031;-60
2022/02/08 02:57:43;;;;;;;40.42;13.73;;;7.00;99.90;;;;;;5115514;28;20541;-60
2022/02/08 03:00:12;;;;;;;52.77;14.93;;;7.10;99.90;;;;;;5115603;28;20048;-61
2022/02/08 03:02:54;;;;;;;42.28;15.65;;;7.10;99.90;;;;;;5115565;28;20040;-61
2022/02/08 03:18:46;;;;;;;42.33;12.57;;;7.30;99.90;;;;;;5115470;28;20040;-61
2022/02/08 03:21:12;;;;;;;48.60;12.07;;;7.40;99.90;;;;;;5115182;28;20177;-62
2022/02/08 03:23:39;;;;;;;34.97;11.60;;;7.40;99.90;;;;;;5115261;28;20042;-62
2022/02/08 03:26:05;;;;;;;41.40;11.80;;;7.50;99.90;;;;;;5115033;28;20078;-61
2022/02/08 03:28:31;;;;;;;40.95;10.35;;;7.60;99.90;;;;;;5114987;28;20075;-62
2022/02/08 03:30:56;;;;;;;39.63;11.82;;;7.60;99.90;;;;;;5115323;28;20075;-60
2022/02/08 03:33:25;;;;;;;30.02;10.82;;;7.60;99.90;;;;;;5114978;28;20470;-61
2022/02/08 03:35:53;;;;;;;28.63;10.23;;;7.70;99.90;;;;;;5115145;28;20106;-61
2022/02/08 03:38:26;;;;;;;36.17;10.32;;;7.70;99.90;;;;;;5115018;28;20477;-61
2022/02/08 03:40:53;;;;;;;34.35;10.95;;;7.80;99.90;;;;;;5114792;28;20081;-61
2022/02/08 03:45:54;;;;;;;37.22;9.85;;;7.80;99.90;;;;;;5115117;28;20389;-60
2022/02/08 03:48:22;;;;;;;31.95;9.68;;;7.90;99.90;;;;;;5114568;28;20054;-61
2022/02/08 03:50:54;;;;;;;30.13;9.73;;;7.90;99.90;;;;;;5114586;28;20040;-62
2022/02/08 03:53:21;;;;;;;35.55;9.02;;;8.00;99.90;;;;;;5114230;28;20493;-62
2022/02/08 03:55:48;;;;;;;26.88;8.20;;;7.90;99.90;;;;;;5096299;28;20122;-62
2022/02/08 03:58:14;;;;;;;25.52;8.70;;;8.00;99.90;;;;;;5114413;28;20035;-61
2022/02/08 04:01:03;;;;;;;31.23;9.50;;;8.00;99.90;;;;;;5114266;28;20054;-62
2022/02/08 04:03:31;;;;;;;27.40;8.70;;;8.00;99.90;;;;;;5114045;28;20058;-61
2022/02/08 04:05:59;;;;;;;27.30;8.25;;;8.00;99.90;;;;;;5114309;28;20074;-61
2022/02/08 04:08:24;;;;;;;26.15;8.43;;;8.10;99.90;;;;;;5114202;28;20083;-61
2022/02/08 04:10:51;;;;;;;33.00;8.18;;;8.10;99.90;;;;;;5114324;28;20070;-62
2022/02/08 04:16:05;;;;;;;36.55;9.07;;;8.10;99.90;;;;;;5095806;28;20502;-61
2022/02/08 04:45:37;;;;;;;21.38;5.47;;;8.30;99.90;;;;;;5050759;28;20467;-61
2022/02/08 04:48:15;;;;;;;;;;;8.40;99.90;;;;;;5050855;28;20491;-62
2022/02/08 04:50:42;;;;;;;18.13;6.30;;;8.30;99.90;;;;;;5050958;28;20018;-60
2022/02/08 04:53:16;;;;;;;21.00;6.65;;;8.30;99.90;;;;;;5050763;28;20056;-61
2022/02/08 04:56:20;;;;;;;18.38;5.43;;;8.30;99.90;;;;;;5050368;28;20057;-61
2022/02/08 04:58:42;;;;;;;22.30;5.45;;;8.40;99.90;;;;;;5049099;28;20069;-61
2022/02/08 05:01:25;;;;;;;24.13;5.45;;;8.40;99.90;;;;;;5050354;28;20045;-61
2022/02/08 05:49:10;;;;;;;16.65;3.38;;;8.70;99.90;;;;;;5112537;28;20564;-61
2022/02/08 05:51:59;;;;;;;13.02;3.10;;;8.60;99.90;;;;;;5112419;28;20398;-61
2022/02/08 05:54:24;;;;;;;16.10;3.10;;;8.70;99.90;;;;;;5112335;28;20067;-61
2022/02/08 05:56:54;;;;;;;18.40;4.13;;;8.70;99.90;;;;;;5112434;28;20541;-62
2022/02/08 05:59:23;;;;;;;14.63;3.45;;;8.70;99.90;;;;;;5112149;28;20082;-61
2022/02/08 06:01:49;;;;;;;19.13;3.45;;;8.70;99.90;;;;;;5112372;28;20043;-61
2022/02/08 06:04:15;;;;;;;13.55;2.95;;;8.70;99.90;;;;;;5112047;28;20036;-61
2022/02/08 06:06:41;;;;;;;19.55;4.30;;;8.70;99.90;;;;;;5112121;28;20040;-61
2022/02/08 06:09:06;;;;;;;14.43;2.95;;;8.70;99.90;;;;;;5111905;28;20055;-61
2022/02/08 06:11:36;;;;;;;13.18;2.60;;;8.70;99.90;;;;;;5112574;28;20040;-61
2022/02/08 06:14:04;;;;;;;14.48;2.90;;;8.80;99.90;;;;;;5112369;28;20169;-62
2022/02/08 06:16:30;;;;;;;18.55;3.38;;;8.80;99.90;;;;;;5112285;28;20419;-62
2022/02/08 06:18:55;;;;;;;19.25;3.88;;;8.80;99.90;;;;;;5115652;28;20383;-62
2022/02/08 06:21:21;;;;;;;14.50;3.80;;;8.80;99.90;;;;;;5116312;28;20049;-61
2022/02/08 06:23:47;;;;;;;12.45;2.63;;;8.80;99.90;;;;;;5116503;28;20151;-61
2022/02/08 06:26:14;;;;;;;13.40;2.92;;;8.80;99.90;;;;;;5116585;28;20505;-61
2022/02/08 06:28:41;;;;;;;12.88;2.58;;;8.80;99.90;;;;;;5116120;28;20833;-61
2022/02/08 06:31:06;;;;;;;16.98;2.85;;;8.80;99.90;;;;;;5116228;28;20118;-61
2022/02/08 06:33:32;;;;;;;15.63;3.05;;;8.80;99.90;;;;;;5116136;28;20525;-61
2022/02/08 06:35:57;;;;;;;16.25;3.45;;;8.80;99.90;;;;;;5115956;28;20035;-61
2022/02/08 06:38:23;;;;;;;14.25;3.08;;;8.80;99.90;;;;;;5115889;28;20489;-61
2022/02/08 06:40:52;;;;;;;16.58;3.40;;;8.70;99.90;;;;;;5115924;28;20039;-61
2022/02/08 06:43:19;;;;;;;;;;;8.80;99.90;;;;;;5081697;28;20043;-62
2022/02/08 06:45:45;;;;;;;18.25;2.90;;;8.80;99.90;;;;;;5115541;28;20003;-62
2022/02/08 06:48:11;;;;;;;19.30;3.08;;;8.80;99.90;;;;;;5115608;28;20123;-62
2022/02/08 06:50:38;;;;;;;17.42;2.85;;;8.80;99.90;;;;;;5115562;28;20066;-63
2022/02/08 06:53:04;;;;;;;15.02;2.85;;;8.80;99.90;;;;;;5115506;28;20047;-61
2022/02/08 06:55:30;;;;;;;13.73;2.90;;;8.90;99.90;;;;;;5115583;28;20046;-61
2022/02/08 07:00:31;;;;;;;17.27;3.42;;;8.80;99.90;;;;;;5115238;28;20064;-61
2022/02/08 07:02:57;;;;;;;14.23;2.72;;;8.80;99.90;;;;;;5096783;28;20405;-62
2022/02/08 07:05:23;;;;;;;14.75;3.28;;;8.80;99.90;;;;;;5115410;28;20043;-62
2022/02/08 07:07:48;;;;;;;12.98;2.78;;;8.80;99.90;;;;;;5115218;28;20035;-61
2022/02/08 07:10:14;;;;;;;14.73;2.70;;;8.90;99.90;;;;;;5115104;28;20031;-62
2022/02/08 07:12:40;;;;;;;14.52;2.72;;;8.90;99.90;;;;;;5115182;28;20114;-62
2022/02/08 07:15:11;;;;;;;16.08;2.70;;;8.80;99.90;;;;;;5115242;28;20043;-62
2022/02/08 07:17:37;;;;;;;10.77;2.33;;;8.90;99.90;;;;;;5115350;28;20043;-62
2022/02/08 07:20:04;;;;;;;13.57;3.10;;;8.90;99.90;;;;;;5096706;28;20036;-62
2022/02/08 07:22:31;;;;;;;10.73;2.65;;;8.90;99.90;;;;;;5115266;28;20050;-62
2022/02/08 07:24:58;;;;;;;15.13;2.90;;;8.90;99.90;;;;;;5114985;28;20058;-62
2022/02/08 07:27:24;;;;;;;14.65;2.70;;;8.90;99.90;;;;;;5114853;28;20398;-62
2022/02/08 07:29:54;;;;;;;14.02;2.97;;;8.90;99.90;;;;;;5114462;28;20040;-63
2022/02/08 07:32:37;;;;;;;14.48;3.17;;;8.90;99.90;;;;;;5114613;28;20039;-62
2022/02/08 07:35:28;;;;;;;11.50;2.65;;;9.00;99.90;;;;;;5114713;28;20081;-63
2022/02/08 07:38:06;;;;;;;16.52;2.60;;;9.00;99.90;;;;;;5114874;28;20050;-62
2022/02/08 07:42:59;;;;;;;19.27;2.92;;;9.10;99.90;;;;;;5114406;28;20512;-62
2022/02/08 07:45:25;;;;;;;8.77;2.75;;;9.00;99.90;;;;;;5114596;28;20031;-63
2022/02/08 07:47:55;;;;;;;16.63;2.80;;;9.10;99.90;;;;;;5114215;28;20496;-62
2022/02/08 07:50:25;;;;;;;11.40;2.20;;;9.00;99.90;;;;;;5114592;28;20039;-62
2022/02/08 07:52:51;;;;;;;13.07;2.10;;;9.10;99.90;;;;;;5114299;28;20108;-63
2022/02/08 07:55:18;;;;;;;11.77;2.92;;;9.10;99.90;;;;;;5095920;28;20083;-62
2022/02/08 07:57:44;;;;;;;12.38;2.88;;;9.10;99.90;;;;;;5114153;28;20039;-62
2022/02/08 08:00:10;;;;;;;13.35;3.00;;;9.10;99.90;;;;;;5114077;28;20063;-63
2022/02/08 08:02:36;;;;;;;17.35;4.13;;;9.10;99.90;;;;;;5114241;28;20040;-62
2022/02/08 08:05:04;;;;;;;11.15;2.08;;;9.10;99.90;;;;;;5114262;28;20071;-63
2022/02/08 08:07:30;;;;;;;18.08;3.03;;;9.10;99.90;;;;;;5113917;28;20112;-63
2022/02/08 08:09:55;;;;;;;16.02;3.55;;;9.10;99.90;;;;;;5113891;28;20478;-62
2022/02/08 08:12:22;;;;;;;12.90;2.42;;;9.10;99.90;;;;;;5113920;28;20122;-62
2022/02/08 08:14:50;;;;;;;16.17;2.70;;;9.10;99.90;;;;;;5113844;28;20397;-63
2022/02/08 08:19:53;;;;;;;14.85;2.42;;;9.20;99.90;;;;;;5114027;28;20148;-62
2022/02/08 08:22:19;;;;;;;17.02;2.92;;;9.10;99.90;;;;;;5113671;28;20481;-62
2022/02/08 08:24:45;;;;;;;16.13;2.75;;;9.20;99.90;;;;;;5113695;28;20032;-63
2022/02/08 08:27:12;;;;;;;16.95;2.78;;;9.20;99.90;;;;;;5113772;28;20119;-62
2022/02/08 08:29:38;;;;;;;11.57;2.15;;;9.20;99.90;;;;;;5095437;28;20035;-63
2022/02/08 08:32:05;;;;;;;14.65;2.97;;;9.30;99.90;;;;;;5113515;28;20092;-63
2022/02/08 08:34:32;;;;;;;13.52;2.97;;;9.20;99.90;;;;;;5113467;28;20435;-62
2022/02/08 08:36:57;;;;;;;17.65;3.70;;;9.20;99.90;;;;;;5113474;28;20089;-63
2022/02/08 08:39:27;;;;;;;15.63;2.45;;;9.20;99.90;;;;;;5113301;28;20035;-63
2022/02/08 08:50:01;;;;;;;23.02;3.50;;;9.20;99.90;;;;;;5113198;28;20048;-62
2022/02/08 08:52:34;;;;;;;17.10;2.88;;;9.30;99.90;;;;;;5113102;28;20481;-62
2022/02/08 08:55:00;;;;;;;18.13;3.38;;;9.30;99.90;;;;;;5113417;28;20085;-63
2022/02/08 08:57:29;;;;;;;15.32;4.05;;;9.30;99.90;;;;;;5113460;28;20075;-63
2022/02/08 08:59:54;;;;;;;;;;;9.30;99.90;;;;;;5113245;28;20055;-63
2022/02/08 09:02:20;;;;;;;14.55;2.80;;;9.40;99.90;;;;;;5113129;28;19926;-63
2022/02/08 09:04:48;;;;;;;16.38;3.35;;;9.40;99.90;;;;;;5113295;28;20043;-63
2022/02/08 09:07:15;;;;;;;10.40;2.47;;;9.30;99.90;;;;;;5113189;28;20051;-62
2022/02/08 09:09:44;;;;;;;20.52;2.65;;;9.30;99.90;;;;;;5113285;28;20558;-63
2022/02/08 09:14:52;;;;;;;16.55;2.83;;;9.20;99.90;;;;;;5112919;28;20063;-63
2022/02/08 09:20:59;;;;;;;13.23;3.40;;;9.40;99.90;;;;;;5112803;28;20044;-63
2022/02/08 09:28:51;;;;;;;22.40;3.25;;;9.50;99.90;;;;;;5029929;28;20049;-62
2022/02/08 09:31:19;;;;;;;14.00;2.75;;;9.50;99.90;;;;;;5029885;28;20053;-63
2022/02/08 09:33:46;;;;;;;13.40;2.75;;;9.60;99.90;;;;;;5029785;28;20045;-62
2022/02/08 09:36:11;;;;;;;11.43;2.42;;;9.60;99.90;;;;;;5029977;28;20124;-62
2022/02/08 09:38:38;;;;;;;11.27;2.95;;;9.60;99.90;;;;;;5029638;28;20530;-62
2022/02/08 09:41:04;;;;;;;17.27;4.25;;;9.60;99.90;;;;;;5029735;28;20068;-62
2022/02/08 09:43:31;;;;;;;15.07;2.90;;;9.70;99.90;;;;;;5029721;28;20107;-63
2022/02/08 09:46:01;;;;;;;9.15;2.20;;;9.60;99.90;;;;;;5029579;28;20455;-63
2022/02/08 09:48:42;;;;;;;16.05;2.75;;;9.70;99.90;;;;;;5029478;28;20079;-62
2022/02/08 09:51:08;;;;;;;18.08;2.70;;;9.70;99.90;;;;;;5012908;28;20044;-61
2022/02/08 09:53:36;;;;;;;15.52;2.60;;;9.70;99.90;;;;;;5029574;28;20041;-54
2022/02/08 09:56:04;;;;;;;14.60;2.28;;;9.70;99.90;;;;;;5029633;28;20049;-53
2022/02/08 09:58:29;;;;;;;9.68;2.50;;;9.70;99.90;;;;;;5029464;28;20183;-62
2022/02/08 10:01:10;;;;;;;16.75;2.80;;;9.70;99.90;;;;;;5029469;28;20128;-62
2022/02/08 10:03:38;;;;;;;15.50;3.55;;;9.60;99.90;;;;;;5086918;28;20055;-62
2022/02/08 10:06:03;;;;;;;15.93;2.72;;;9.70;99.90;;;;;;5112306;28;20431;-62
2022/02/08 10:08:29;;;;;;;21.70;3.53;;;9.70;99.90;;;;;;5112156;28;20040;-53
2022/02/08 10:10:55;;;;;;;14.15;2.88;;;9.70;99.90;;;;;;5112415;28;20072;-56
2022/02/08 10:24:06;;;;;;;13.02;2.70;;;9.80;99.90;;;;;;5112593;28;20267;-63
2022/02/08 10:40:00;;;;;;;13.50;2.75;;;10.00;99.90;;;;;;5112710;28;20144;-63
2022/02/08 10:42:28;;;;;;;14.65;3.35;;;10.10;99.90;;;;;;5112305;28;20036;-62
2022/02/08 10:44:55;;;;;;;18.42;3.90;;;10.20;99.90;;;;;;5112007;28;20055;-63
2022/02/08 10:47:41;;;;;;;17.08;3.85;;;10.20;99.90;;;;;;5092814;28;20083;-62
2022/02/08 10:50:09;;;;;;;13.82;3.65;;;10.20;99.90;;;;;;5111330;28;20074;-62
2022/02/08 10:52:38;;;;;;;15.65;3.08;;;10.30;99.90;;;;;;5111973;28;20406;-53
2022/02/08 10:55:31;;;;;;;15.38;2.65;;;10.20;99.90;;;;;;5112013;28;20040;-54
2022/02/08 11:03:14;;;;;;;15.45;2.90;;;10.20;99.90;;;;;;5112072;28;20122;-62
2022/02/08 11:05:57;;;;;;;15.20;2.50;;;10.20;99.90;;;;;;5115412;28;20036;-62
2022/02/08 11:11:19;;;;;;;15.98;2.55;;;10.20;99.90;;;;;;5115275;28;20488;-60
2022/02/08 11:19:48;;;;;;;16.30;3.20;;;10.20;99.90;;;;;;5032003;28;20046;-51
2022/02/08 11:25:06;;;;;;;14.05;3.72;;;10.30;99.90;;;;;;5032126;28;20128;-53
2022/02/08 11:27:37;;;;;;;14.75;3.28;;;10.20;99.90;;;;;;5032128;28;20053;-53
2022/02/08 11:30:11;;;;;;;14.82;2.58;;;10.30;99.90;;;;;;5032295;28;20050;-50
2022/02/08 11:49:27;;;;;;;15.63;2.92;;;10.30;99.90;;;;;;5031590;28;20053;-62
2022/02/08 11:52:17;;;;;;;18.92;3.25;;;10.30;99.90;;;;;;5031590;28;20045;-63
2022/02/08 12:07:28;;;;;;;13.52;2.80;;;10.20;99.90;;;;;;5095623;28;20056;-62
2022/02/08 12:10:03;;;;;;;14.23;2.90;;;10.20;99.90;;;;;;5114367;28;20355;-53
2022/02/08 13:00:34;;;;;;;12.68;3.08;;;10.20;99.90;;;;;;5059767;28;20139;-50
2022/02/08 13:20:00;;;;;;;19.13;3.75;;;10.50;99.90;;;;;;5112939;28;20044;-52
2022/02/08 14:21:55;;;;;;;16.23;3.22;;;10.20;99.90;;;;;;5112132;28;20047;-61
2022/02/08 14:29:53;;;;;;;14.23;2.90;;;10.20;99.90;;;;;;5112088;28;20462;-61
2022/02/08 14:32:28;;;;;;;10.90;2.03;;;10.20;99.90;;;;;;5111857;28;20047;-61
2022/02/08 14:35:30;;;;;;;12.63;2.58;;;10.20;99.90;;;;;;5111886;28;20048;-61
2022/02/08 15:00:14;;;;;;;15.85;3.15;;;10.10;99.90;;;;;;5072302;28;20515;-62
2022/02/08 15:10:41;;;;;;;16.88;2.67;;;10.20;99.90;;;;;;5072676;28;20173;-61
2022/02/08 15:13:08;;;;;;;11.48;2.92;;;10.20;99.90;;;;;;5072198;28;20052;-62
2022/02/08 15:18:18;;;;;;;11.77;2.58;;;10.20;99.90;;;;;;5072194;28;20127;-62
2022/02/08 15:20:43;;;;;;;16.17;3.13;;;10.10;99.90;;;;;;5102604;28;20126;-60
2022/02/08 15:23:11;;;;;;;15.63;2.58;;;10.10;99.90;;;;;;5115024;28;20050;-51
2022/02/08 15:25:37;;;;;;;12.00;2.55;;;10.10;99.90;;;;;;5096997;28;20051;-51
2022/02/08 15:28:05;;;;;;;19.65;3.30;;;10.10;99.90;;;;;;5115394;28;20436;-53
2022/02/08 15:30:32;;;;;;;13.40;2.42;;;10.00;99.90;;;;;;5114842;28;20549;-52
2022/02/08 15:32:59;;;;;;;13.20;2.28;;;10.00;99.90;;;;;;5096963;28;20043;-52
2022/02/08 15:35:25;;;;;;;15.25;2.50;;;10.00;99.90;;;;;;5114946;28;20100;-52
2022/02/08 15:37:51;;;;;;;14.20;2.70;;;10.10;99.90;;;;;;5114790;28;20126;-61
2022/02/08 15:40:20;;;;;;;14.57;2.65;;;10.10;99.90;;;;;;5114790;28;20040;-61
2022/02/08 15:42:49;;;;;;;13.80;2.47;;;10.00;99.90;;;;;;5114935;28;20031;-61
2022/02/08 15:45:26;;;;;;;16.58;2.50;;;10.00;99.90;;;;;;5115024;28;20038;-61
2022/02/08 15:47:54;;;;;;;16.80;3.35;;;10.10;99.90;;;;;;5114519;28;20051;-62
2022/02/08 15:50:31;;;;;;;21.43;3.30;;;10.10;99.90;;;;;;5114203;28;20479;-61
2022/02/08 15:55:41;;;;;;;17.98;3.30;;;10.10;99.90;;;;;;5114815;28;20047;-62
2022/02/08 15:58:23;;;;;;;15.00;3.20;;;10.10;99.90;;;;;;5114753;28;20063;-62
2022/02/08 16:08:38;;;;;;;15.35;3.20;;;10.00;99.90;;;;;;5114127;28;20101;-61
2022/02/08 16:13:56;;;;;;;11.68;2.30;;;10.00;99.90;;;;;;5114209;28;20036;-53
2022/02/08 16:16:54;;;;;;;17.17;2.78;;;10.00;99.90;;;;;;5113947;28;20046;-52
2022/02/08 16:24:27;;;;;;;16.88;3.22;;;9.90;99.90;;;;;;5113945;28;20039;-53
2022/02/08 16:56:49;;;;;;;21.55;3.03;;;9.80;99.90;;;;;;4991074;28;20130;-53
2022/02/08 16:59:25;;;;;;;16.40;2.88;;;9.80;99.90;;;;;;4990903;28;20049;-51
2022/02/08 17:01:52;;;;;;;15.82;2.50;;;9.70;99.90;;;;;;4990304;28;20070;-52
2022/02/08 17:04:17;;;;;;;20.45;3.30;;;9.60;99.90;;;;;;4991257;28;20164;-48
2022/02/08 17:06:43;;;;;;;21.23;3.65;;;9.60;99.90;;;;;;4991222;28;20520;-53
2022/02/08 17:09:21;;;;;;;17.20;4.03;;;9.50;99.90;;;;;;5056167;28;20048;-49
2022/02/08 17:11:54;;;;;;;16.00;3.67;;;9.40;99.90;;;;;;5076124;28;20115;-53
2022/02/08 17:48:21;;;;;;;15.50;3.28;;;9.20;99.90;;;;;;5091917;28;20040;-51
2022/02/08 17:50:48;;;;;;;17.13;3.70;;;9.20;99.90;;;;;;5091979;28;20068;-52
2022/02/08 17:53:17;;;;;;;18.42;2.72;;;9.20;99.90;;;;;;5092209;28;20040;-49
2022/02/08 17:55:43;;;;;;;22.80;3.95;;;9.20;99.90;;;;;;5092657;28;20428;-49
2022/02/08 17:58:09;;;;;;;20.48;3.50;;;9.20;99.90;;;;;;5092023;28;20043;-51
2022/02/08 18:00:36;;;;;;;20.45;3.97;;;9.20;99.90;;;;;;5101143;28;20087;-52
2022/02/08 18:03:02;;;;;;;13.85;3.78;;;9.20;99.90;;;;;;5112050;28;20049;-49
2022/02/08 18:05:28;;;;;;;20.77;3.60;;;9.20;99.90;;;;;;5112156;28;20042;-49
2022/02/08 18:07:54;;;;;;;15.95;3.47;;;9.20;99.90;;;;;;5111931;28;20393;-52
2022/02/08 18:10:23;;;;;;;14.90;4.00;;;9.20;99.90;;;;;;5112251;28;20035;-51
2022/02/08 18:12:51;;;;;;;20.40;4.50;;;9.20;99.90;;;;;;5113700;28;20035;-51
2022/02/08 18:15:16;;;;;;;22.00;3.97;;;9.30;99.90;;;;;;5116508;28;20044;-52
2022/02/08 18:17:52;;;;;;;18.55;3.42;;;9.20;99.90;;;;;;5116190;28;20039;-50
2022/02/08 19:09:04;;;;;;;21.15;3.47;;;9.30;99.90;;;;;;5115536;28;20043;-52
2022/02/08 19:11:55;;;;;;;24.38;3.42;;;9.30;99.90;;;;;;5115017;28;20039;-51
2022/02/08 19:17:13;;;;;;;21.70;3.80;;;9.30;99.90;;;;;;5115285;28;20109;-51
2022/02/08 19:22:33;;;;;;;16.27;3.38;;;9.40;99.90;;;;;;5032391;28;20466;-53
2022/02/08 19:25:00;;;;;;;14.20;3.28;;;9.40;99.90;;;;;;5031658;28;20053;-53
2022/02/08 19:27:25;;;;;;;24.20;5.38;;;9.30;99.90;;;;;;5032471;28;20164;-49
2022/02/08 19:29:51;;;;;;;13.05;3.03;;;9.40;99.90;;;;;;5032128;28;20167;-51
2022/02/08 19:32:17;;;;;;;17.63;3.90;;;9.30;99.90;;;;;;5032073;28;20049;-53
2022/02/08 19:34:47;;;;;;;18.90;3.58;;;9.30;99.90;;;;;;5032037;28;20041;-53
2022/02/08 19:37:16;;;;;;;23.20;3.80;;;9.30;99.90;;;;;;5032260;28;20726;-52
2022/02/08 19:39:43;;;;;;;17.48;4.05;;;9.30;99.90;;;;;;5015247;28;20456;-52
2022/02/08 19:42:10;;;;;;;15.93;4.63;;;9.30;99.90;;;;;;5032215;28;20099;-53
2022/02/08 19:44:36;;;;;;;17.60;4.55;;;9.20;99.90;;;;;;5032180;28;20045;-52
2022/02/08 19:47:03;;;;;;;15.32;3.40;;;9.20;99.90;;;;;;5032259;28;20473;-52
2022/02/08 19:49:29;;;;;;;22.45;4.40;;;9.20;99.90;;;;;;5032219;28;20602;-53
2022/02/08 19:51:55;;;;;;;18.02;3.95;;;9.30;99.90;;;;;;5031969;28;20049;-53
2022/02/08 19:54:26;;;;;;;25.38;4.53;;;9.20;99.90;;;;;;5015224;28;20392;-51
2022/02/08 19:57:02;;;;;;;18.50;3.78;;;9.20;99.90;;;;;;5015407;28;20057;-53
2022/02/08 19:59:39;;;;;;;19.45;4.07;;;9.20;99.90;;;;;;5091439;28;20050;-50
2022/02/08 20:02:09;;;;;;;12.77;3.20;;;9.30;99.90;;;;;;5114572;28;20072;-49
2022/02/08 20:04:37;;;;;;;21.83;5.00;;;9.30;99.90;;;;;;5114275;28;20035;-48
2022/02/08 20:07:05;;;;;;;16.38;4.40;;;9.40;99.90;;;;;;5114282;28;20036;-51
2022/02/08 20:09:31;;;;;;;12.63;4.35;;;9.30;99.90;;;;;;5114236;28;20036;-52
2022/02/08 20:11:57;;;;;;;14.38;3.80;;;9.40;99.90;;;;;;5114362;28;20055;-54
2022/02/08 20:14:24;;;;;;;17.73;4.60;;;9.30;99.90;;;;;;5114254;28;20119;-47
2022/02/08 20:16:50;;;;;;;25.50;5.75;;;9.40;99.90;;;;;;5114270;28;20054;-51
2022/02/08 20:19:19;;;;;;;18.17;5.03;;;9.30;99.90;;;;;;5113948;28;20036;-51
2022/02/08 20:21:45;;;;;;;23.02;6.10;;;9.40;99.90;;;;;;5114253;28;20043;-51
2022/02/08 20:24:12;;;;;;;18.10;4.97;;;9.30;99.90;;;;;;5113845;28;20032;-48
2022/02/08 20:29:15;;;;;;;22.50;5.30;;;9.30;99.90;;;;;;5096721;28;20054;-50
2022/02/08 20:31:43;;;;;;;17.95;4.88;;;9.30;99.90;;;;;;5113931;28;20119;-53
2022/02/08 20:34:08;;;;;;;20.13;4.50;;;9.30;99.90;;;;;;5114053;28;20129;-48
2022/02/08 20:36:34;;;;;;;18.67;4.28;;;9.30;99.90;;;;;;5112536;28;20067;-50
2022/02/08 20:39:00;;;;;;;19.13;4.53;;;9.30;99.90;;;;;;5113775;28;20051;-49
2022/02/08 20:41:25;;;;;;;17.52;5.00;;;9.20;99.90;;;;;;5113671;28;20397;-51
2022/02/08 20:43:51;;;;;;;21.42;5.65;;;9.30;99.90;;;;;;5113666;28;20488;-49
2022/02/08 20:46:17;;;;;;;23.38;6.07;;;9.30;99.90;;;;;;5094758;28;20044;-50
2022/02/08 20:48:46;;;;;;;15.20;4.72;;;9.30;99.90;;;;;;5113700;28;20044;-52
2022/02/08 20:51:11;;;;;;;18.88;5.18;;;9.30;99.90;;;;;;5113570;28;20443;-50
2022/02/08 20:53:47;;;;;;;21.13;4.93;;;9.30;99.90;;;;;;5113535;28;20047;-47
2022/02/08 20:56:27;;;;;;;18.40;5.00;;;9.20;99.90;;;;;;5113482;28;20043;-53
2022/02/08 21:01:27;;;;;;;17.33;4.68;;;9.20;99.90;;;;;;5113232;28;20059;-48
2022/02/08 21:06:28;;;;;;;17.77;4.03;;;9.20;99.90;;;;;;5113516;28;20131;-52
2022/02/08 21:08:54;;;;;;;16.27;3.97;;;9.20;99.90;;;;;;5113105;28;20039;-50
2022/02/08 21:11:27;;;;;;;19.88;5.05;;;9.30;99.90;;;;;;5113104;28;20039;-53
2022/02/08 21:14:04;;;;;;;17.75;4.50;;;9.20;99.90;;;;;;5112805;28;20522;-52
2022/02/08 21:16:34;;;;;;;17.13;5.43;;;9.20;99.90;;;;;;5113285;28;20115;-50
2022/02/08 21:19:00;;;;;;;18.42;4.63;;;9.20;99.90;;;;;;5113035;28;20044;-52
2022/02/08 21:21:26;;;;;;;17.75;4.30;;;9.10;99.90;;;;;;5112921;28;20035;-53
2022/02/08 21:23:53;;;;;;;12.15;3.63;;;9.20;99.90;;;;;;5112943;28;20394;-51